WEATHER/FLIGHT PLANNING

Hattiesburg Radar

 

 

 

 

Weather Links

Flight Planning Links

 

METAR

2018/05/24 08:53 KHBG 240853Z AUTO 18003KT 10SM CLR 21/21 A3005 RMK AO2 SLP173 T02110211 55013

TAF

2018/05/24 06:45 TAF KHBG 240543Z 2406/2506 00000KT P6SM SKC FM241100 00000KT 3SM BR SCT005 BKN050 FM241400 00000KT P6SM SCT015 BKN030 FM241900 04003KT P6SM VCTS SCT025 BKN040CB FM250100 VRB03KT P6SM SCT100